sensor_id;sensor_type;location;lat;lon;timestamp;temperature;humidity
53880;DHT22;39791;53.184;5.486;2023-07-13T00:01:27;18.90;10.90
53880;DHT22;39791;53.184;5.486;2023-07-13T00:03:53;18.90;1.00
53880;DHT22;39791;53.184;5.486;2023-07-13T00:06:19;18.80;1.00
53880;DHT22;39791;53.184;5.486;2023-07-13T00:08:46;18.80;1.00
53880;DHT22;39791;53.184;5.486;2023-07-13T00:11:13;18.90;1.00
53880;DHT22;39791;53.184;5.486;2023-07-13T00:13:39;18.90;1.00
53880;DHT22;39791;53.184;5.486;2023-07-13T00:16:05;18.90;99.90
53880;DHT22;39791;53.184;5.486;2023-07-13T00:18:31;18.90;99.90
53880;DHT22;39791;53.184;5.486;2023-07-13T00:20:57;19.50;99.90
53880;DHT22;39791;53.184;5.486;2023-07-13T00:23:36;18.90;99.90
53880;DHT22;39791;53.184;5.486;2023-07-13T00:26:07;18.90;99.90
53880;DHT22;39791;53.184;5.486;2023-07-13T00:28:33;18.90;99.90
53880;DHT22;39791;53.184;5.486;2023-07-13T00:30:59;18.90;1.00
53880;DHT22;39791;53.184;5.486;2023-07-13T00:33:26;18.80;1.00
53880;DHT22;39791;53.184;5.486;2023-07-13T00:35:54;18.90;1.00
53880;DHT22;39791;53.184;5.486;2023-07-13T00:38:20;18.80;1.00
53880;DHT22;39791;53.184;5.486;2023-07-13T00:40:46;18.80;1.00
53880;DHT22;39791;53.184;5.486;2023-07-13T00:43:18;18.90;1.00
53880;DHT22;39791;53.184;5.486;2023-07-13T00:48:15;18.80;78.50
53880;DHT22;39791;53.184;5.486;2023-07-13T00:50:44;18.90;99.90
53880;DHT22;39791;53.184;5.486;2023-07-13T00:53:10;18.90;99.90
53880;DHT22;39791;53.184;5.486;2023-07-13T00:55:37;19.00;99.90
53880;DHT22;39791;53.184;5.486;2023-07-13T00:58:04;18.90;99.90
53880;DHT22;39791;53.184;5.486;2023-07-13T01:00:35;19.00;99.90
53880;DHT22;39791;53.184;5.486;2023-07-13T01:03:01;19.00;99.90
53880;DHT22;39791;53.184;5.486;2023-07-13T01:05:34;19.00;99.90
53880;DHT22;39791;53.184;5.486;2023-07-13T01:08:01;19.10;99.90
53880;DHT22;39791;53.184;5.486;2023-07-13T01:10:27;19.00;99.90
53880;DHT22;39791;53.184;5.486;2023-07-13T01:12:54;19.00;99.90
53880;DHT22;39791;53.184;5.486;2023-07-13T01:15:37;19.00;99.90
53880;DHT22;39791;53.184;5.486;2023-07-13T01:18:05;19.00;99.90
53880;DHT22;39791;53.184;5.486;2023-07-13T01:20:32;19.40;1.00
53880;DHT22;39791;53.184;5.486;2023-07-13T01:23:07;19.00;1.00
53880;DHT22;39791;53.184;5.486;2023-07-13T01:25:34;19.00;1.00
53880;DHT22;39791;53.184;5.486;2023-07-13T01:28:01;19.20;1.00
53880;DHT22;39791;53.184;5.486;2023-07-13T01:30:27;19.10;16.90
53880;DHT22;39791;53.184;5.486;2023-07-13T01:32:52;19.10;63.80
53880;DHT22;39791;53.184;5.486;2023-07-13T01:35:18;19.20;99.90
53880;DHT22;39791;53.184;5.486;2023-07-13T01:37:43;19.20;99.90
53880;DHT22;39791;53.184;5.486;2023-07-13T01:40:11;19.20;99.90
53880;DHT22;39791;53.184;5.486;2023-07-13T01:42:37;18.80;99.90
53880;DHT22;39791;53.184;5.486;2023-07-13T01:45:03;19.30;99.90
53880;DHT22;39791;53.184;5.486;2023-07-13T01:47:29;19.40;99.90
53880;DHT22;39791;53.184;5.486;2023-07-13T01:49:59;19.30;99.90
53880;DHT22;39791;53.184;5.486;2023-07-13T01:52:24;19.30;99.90
53880;DHT22;39791;53.184;5.486;2023-07-13T01:54:50;19.30;99.90
53880;DHT22;39791;53.184;5.486;2023-07-13T01:57:15;19.30;99.90
53880;DHT22;39791;53.184;5.486;2023-07-13T01:59:41;19.30;66.50
53880;DHT22;39791;53.184;5.486;2023-07-13T02:02:07;19.30;6.30
53880;DHT22;39791;53.184;5.486;2023-07-13T02:04:33;19.30;1.00
53880;DHT22;39791;53.184;5.486;2023-07-13T02:06:59;19.20;1.00
53880;DHT22;39791;53.184;5.486;2023-07-13T02:09:24;19.30;7.40
53880;DHT22;39791;53.184;5.486;2023-07-13T02:11:50;19.30;1.00
53880;DHT22;39791;53.184;5.486;2023-07-13T02:14:15;19.20;7.50
53880;DHT22;39791;53.184;5.486;2023-07-13T02:16:41;19.20;38.10
53880;DHT22;39791;53.184;5.486;2023-07-13T02:19:07;19.20;79.50
53880;DHT22;39791;53.184;5.486;2023-07-13T02:21:33;19.20;99.90
53880;DHT22;39791;53.184;5.486;2023-07-13T02:23:59;19.20;99.90
53880;DHT22;39791;53.184;5.486;2023-07-13T02:26:25;19.30;99.90
53880;DHT22;39791;53.184;5.486;2023-07-13T02:28:51;19.20;99.90
53880;DHT22;39791;53.184;5.486;2023-07-13T02:31:17;19.20;99.90
53880;DHT22;39791;53.184;5.486;2023-07-13T02:33:43;19.10;99.90
53880;DHT22;39791;53.184;5.486;2023-07-13T02:36:09;19.40;99.90
53880;DHT22;39791;53.184;5.486;2023-07-13T02:38:35;19.30;99.90
53880;DHT22;39791;53.184;5.486;2023-07-13T02:41:05;19.20;1.00
53880;DHT22;39791;53.184;5.486;2023-07-13T02:43:31;19.10;1.00
53880;DHT22;39791;53.184;5.486;2023-07-13T02:45:59;19.00;1.00
53880;DHT22;39791;53.184;5.486;2023-07-13T02:48:29;19.20;1.00
53880;DHT22;39791;53.184;5.486;2023-07-13T02:50:55;19.00;62.30
53880;DHT22;39791;53.184;5.486;2023-07-13T02:53:21;19.10;99.90
53880;DHT22;39791;53.184;5.486;2023-07-13T02:55:46;19.00;99.90
53880;DHT22;39791;53.184;5.486;2023-07-13T02:58:13;18.90;99.90
53880;DHT22;39791;53.184;5.486;2023-07-13T03:00:43;19.00;99.90
53880;DHT22;39791;53.184;5.486;2023-07-13T03:03:08;18.50;99.90
53880;DHT22;39791;53.184;5.486;2023-07-13T03:05:34;18.90;1.00
53880;DHT22;39791;53.184;5.486;2023-07-13T03:08:00;18.70;1.00
53880;DHT22;39791;53.184;5.486;2023-07-13T03:10:25;18.90;6.40
53880;DHT22;39791;53.184;5.486;2023-07-13T03:12:51;18.80;86.70
53880;DHT22;39791;53.184;5.486;2023-07-13T03:15:16;18.80;99.90
53880;DHT22;39791;53.184;5.486;2023-07-13T03:17:42;18.70;99.90
53880;DHT22;39791;53.184;5.486;2023-07-13T03:20:08;18.70;99.90
53880;DHT22;39791;53.184;5.486;2023-07-13T03:22:34;18.80;99.90
53880;DHT22;39791;53.184;5.486;2023-07-13T03:24:59;18.80;1.00
53880;DHT22;39791;53.184;5.486;2023-07-13T03:27:25;18.70;1.00
53880;DHT22;39791;53.184;5.486;2023-07-13T03:29:50;18.80;44.60
53880;DHT22;39791;53.184;5.486;2023-07-13T03:32:16;18.80;99.90
53880;DHT22;39791;53.184;5.486;2023-07-13T03:34:41;18.80;99.90
53880;DHT22;39791;53.184;5.486;2023-07-13T03:37:07;18.80;99.90
53880;DHT22;39791;53.184;5.486;2023-07-13T03:39:33;18.80;99.90
53880;DHT22;39791;53.184;5.486;2023-07-13T03:41:58;18.80;98.70
53880;DHT22;39791;53.184;5.486;2023-07-13T03:44:24;18.80;1.00
53880;DHT22;39791;53.184;5.486;2023-07-13T03:46:49;18.90;99.90
53880;DHT22;39791;53.184;5.486;2023-07-13T03:49:15;19.00;1.00
53880;DHT22;39791;53.184;5.486;2023-07-13T03:51:41;18.80;99.90
53880;DHT22;39791;53.184;5.486;2023-07-13T03:54:07;18.80;1.00
53880;DHT22;39791;53.184;5.486;2023-07-13T03:56:32;18.80;99.90
53880;DHT22;39791;53.184;5.486;2023-07-13T03:58:58;18.80;99.90
53880;DHT22;39791;53.184;5.486;2023-07-13T04:01:24;18.80;1.00
53880;DHT22;39791;53.184;5.486;2023-07-13T04:03:51;18.80;99.90
53880;DHT22;39791;53.184;5.486;2023-07-13T04:06:19;18.90;99.90
53880;DHT22;39791;53.184;5.486;2023-07-13T04:08:54;18.80;99.90
53880;DHT22;39791;53.184;5.486;2023-07-13T04:11:22;18.80;1.00
53880;DHT22;39791;53.184;5.486;2023-07-13T04:13:49;18.80;1.00
53880;DHT22;39791;53.184;5.486;2023-07-13T04:16:15;18.70;99.90
53880;DHT22;39791;53.184;5.486;2023-07-13T04:18:41;18.80;99.90
53880;DHT22;39791;53.184;5.486;2023-07-13T04:21:07;18.80;99.90
53880;DHT22;39791;53.184;5.486;2023-07-13T04:23:35;18.80;99.90
53880;DHT22;39791;53.184;5.486;2023-07-13T04:26:00;18.80;99.90
53880;DHT22;39791;53.184;5.486;2023-07-13T04:28:27;18.90;99.90
53880;DHT22;39791;53.184;5.486;2023-07-13T04:30:53;18.90;99.90
53880;DHT22;39791;53.184;5.486;2023-07-13T04:33:19;19.00;99.90
53880;DHT22;39791;53.184;5.486;2023-07-13T04:35:52;19.00;99.90
53880;DHT22;39791;53.184;5.486;2023-07-13T04:38:20;19.00;99.90
53880;DHT22;39791;53.184;5.486;2023-07-13T04:40:46;19.10;99.90
53880;DHT22;39791;53.184;5.486;2023-07-13T04:43:11;19.00;99.90
53880;DHT22;39791;53.184;5.486;2023-07-13T04:45:37;19.10;99.90
53880;DHT22;39791;53.184;5.486;2023-07-13T04:48:03;19.00;99.90
53880;DHT22;39791;53.184;5.486;2023-07-13T04:50:29;19.10;99.90
53880;DHT22;39791;53.184;5.486;2023-07-13T04:52:55;19.10;99.90
53880;DHT22;39791;53.184;5.486;2023-07-13T04:55:21;19.10;99.50
53880;DHT22;39791;53.184;5.486;2023-07-13T04:57:47;19.10;94.50
53880;DHT22;39791;53.184;5.486;2023-07-13T05:00:13;19.10;89.30
53880;DHT22;39791;53.184;5.486;2023-07-13T05:02:43;19.20;92.60
53880;DHT22;39791;53.184;5.486;2023-07-13T05:05:08;19.20;57.90
53880;DHT22;39791;53.184;5.486;2023-07-13T05:07:34;19.20;9.80
53880;DHT22;39791;53.184;5.486;2023-07-13T05:10:00;19.20;1.00
53880;DHT22;39791;53.184;5.486;2023-07-13T05:12:26;19.30;1.00
53880;DHT22;39791;53.184;5.486;2023-07-13T05:14:52;19.20;1.00
53880;DHT22;39791;53.184;5.486;2023-07-13T05:17:18;19.20;1.00
53880;DHT22;39791;53.184;5.486;2023-07-13T05:19:44;19.30;1.00
53880;DHT22;39791;53.184;5.486;2023-07-13T05:22:09;19.30;1.00
53880;DHT22;39791;53.184;5.486;2023-07-13T05:24:35;19.40;1.00
53880;DHT22;39791;53.184;5.486;2023-07-13T05:27:01;19.50;1.00
53880;DHT22;39791;53.184;5.486;2023-07-13T05:29:27;19.40;1.00
53880;DHT22;39791;53.184;5.486;2023-07-13T05:31:52;19.40;1.00
53880;DHT22;39791;53.184;5.486;2023-07-13T05:34:18;19.40;1.00
53880;DHT22;39791;53.184;5.486;2023-07-13T05:36:44;19.50;1.00
53880;DHT22;39791;53.184;5.486;2023-07-13T05:39:09;19.50;1.00
53880;DHT22;39791;53.184;5.486;2023-07-13T05:41:36;19.60;1.00
53880;DHT22;39791;53.184;5.486;2023-07-13T05:44:02;19.60;1.00
53880;DHT22;39791;53.184;5.486;2023-07-13T05:46:28;19.60;1.00
53880;DHT22;39791;53.184;5.486;2023-07-13T05:48:53;19.60;1.00
53880;DHT22;39791;53.184;5.486;2023-07-13T05:51:19;19.70;99.90
53880;DHT22;39791;53.184;5.486;2023-07-13T05:53:44;19.70;99.90
53880;DHT22;39791;53.184;5.486;2023-07-13T05:56:10;20.10;99.90
53880;DHT22;39791;53.184;5.486;2023-07-13T05:58:36;19.80;99.90
53880;DHT22;39791;53.184;5.486;2023-07-13T06:01:08;19.80;99.90
53880;DHT22;39791;53.184;5.486;2023-07-13T06:03:34;19.80;99.90
53880;DHT22;39791;53.184;5.486;2023-07-13T06:05:59;19.90;99.90
53880;DHT22;39791;53.184;5.486;2023-07-13T06:08:26;19.90;99.90
53880;DHT22;39791;53.184;5.486;2023-07-13T06:10:52;20.00;99.90
53880;DHT22;39791;53.184;5.486;2023-07-13T06:13:18;20.10;99.90
53880;DHT22;39791;53.184;5.486;2023-07-13T06:15:48;20.10;99.90
53880;DHT22;39791;53.184;5.486;2023-07-13T06:18:14;20.00;99.90
53880;DHT22;39791;53.184;5.486;2023-07-13T06:20:40;20.20;99.90
53880;DHT22;39791;53.184;5.486;2023-07-13T06:23:05;20.30;99.90
53880;DHT22;39791;53.184;5.486;2023-07-13T06:25:31;20.30;99.90
53880;DHT22;39791;53.184;5.486;2023-07-13T06:27:57;20.30;99.90
53880;DHT22;39791;53.184;5.486;2023-07-13T06:30:22;20.30;99.90
53880;DHT22;39791;53.184;5.486;2023-07-13T06:32:48;20.40;99.90
53880;DHT22;39791;53.184;5.486;2023-07-13T06:35:13;20.30;99.90
53880;DHT22;39791;53.184;5.486;2023-07-13T06:37:39;20.30;99.90
53880;DHT22;39791;53.184;5.486;2023-07-13T06:40:05;20.40;99.90
53880;DHT22;39791;53.184;5.486;2023-07-13T06:42:31;20.40;99.90
53880;DHT22;39791;53.184;5.486;2023-07-13T06:44:57;20.50;99.90
53880;DHT22;39791;53.184;5.486;2023-07-13T06:47:22;20.60;99.90
53880;DHT22;39791;53.184;5.486;2023-07-13T06:49:48;20.60;99.90
53880;DHT22;39791;53.184;5.486;2023-07-13T06:52:13;20.70;99.90
53880;DHT22;39791;53.184;5.486;2023-07-13T06:54:39;20.60;99.90
53880;DHT22;39791;53.184;5.486;2023-07-13T06:57:05;20.60;99.90
53880;DHT22;39791;53.184;5.486;2023-07-13T06:59:30;20.60;99.90
53880;DHT22;39791;53.184;5.486;2023-07-13T07:01:56;20.80;99.90
53880;DHT22;39791;53.184;5.486;2023-07-13T07:04:22;20.90;99.90
53880;DHT22;39791;53.184;5.486;2023-07-13T07:06:47;21.00;99.90
53880;DHT22;39791;53.184;5.486;2023-07-13T07:09:13;21.30;99.90
53880;DHT22;39791;53.184;5.486;2023-07-13T07:11:39;21.30;99.90
53880;DHT22;39791;53.184;5.486;2023-07-13T07:14:04;21.50;99.90
53880;DHT22;39791;53.184;5.486;2023-07-13T07:16:30;21.40;99.90
53880;DHT22;39791;53.184;5.486;2023-07-13T07:18:56;21.60;99.90
53880;DHT22;39791;53.184;5.486;2023-07-13T07:21:21;21.60;99.90
53880;DHT22;39791;53.184;5.486;2023-07-13T07:23:48;21.80;99.90
53880;DHT22;39791;53.184;5.486;2023-07-13T07:26:14;21.90;99.90
53880;DHT22;39791;53.184;5.486;2023-07-13T07:28:40;22.00;99.90
53880;DHT22;39791;53.184;5.486;2023-07-13T07:31:05;22.10;99.90
53880;DHT22;39791;53.184;5.486;2023-07-13T07:33:32;22.20;99.90
53880;DHT22;39791;53.184;5.486;2023-07-13T07:35:59;22.40;99.90
53880;DHT22;39791;53.184;5.486;2023-07-13T07:38:25;22.70;99.90
53880;DHT22;39791;53.184;5.486;2023-07-13T07:40:50;22.70;99.90
53880;DHT22;39791;53.184;5.486;2023-07-13T07:43:16;22.60;99.90
53880;DHT22;39791;53.184;5.486;2023-07-13T07:45:43;22.40;99.90
53880;DHT22;39791;53.184;5.486;2023-07-13T07:48:09;22.40;99.90
53880;DHT22;39791;53.184;5.486;2023-07-13T07:50:35;22.50;99.90
53880;DHT22;39791;53.184;5.486;2023-07-13T07:53:01;22.50;99.90
53880;DHT22;39791;53.184;5.486;2023-07-13T07:55:27;22.60;99.90
53880;DHT22;39791;53.184;5.486;2023-07-13T07:57:53;22.80;99.90
53880;DHT22;39791;53.184;5.486;2023-07-13T08:00:19;22.90;99.90
53880;DHT22;39791;53.184;5.486;2023-07-13T08:02:45;23.00;99.90
53880;DHT22;39791;53.184;5.486;2023-07-13T08:05:11;22.80;99.90
53880;DHT22;39791;53.184;5.486;2023-07-13T08:07:37;23.00;99.90
53880;DHT22;39791;53.184;5.486;2023-07-13T08:10:05;23.20;99.80
53880;DHT22;39791;53.184;5.486;2023-07-13T08:12:34;23.30;93.50
53880;DHT22;39791;53.184;5.486;2023-07-13T08:14:59;23.30;83.00
53880;DHT22;39791;53.184;5.486;2023-07-13T08:17:26;23.20;34.60
53880;DHT22;39791;53.184;5.486;2023-07-13T08:19:52;22.80;22.00
53880;DHT22;39791;53.184;5.486;2023-07-13T08:22:17;22.90;19.60
53880;DHT22;39791;53.184;5.486;2023-07-13T08:24:43;23.00;17.90
53880;DHT22;39791;53.184;5.486;2023-07-13T08:27:10;23.10;11.00
53880;DHT22;39791;53.184;5.486;2023-07-13T08:29:37;23.20;9.90
53880;DHT22;39791;53.184;5.486;2023-07-13T08:32:03;23.50;10.20
53880;DHT22;39791;53.184;5.486;2023-07-13T08:34:29;23.20;1.00
53880;DHT22;39791;53.184;5.486;2023-07-13T08:36:55;23.10;5.70
53880;DHT22;39791;53.184;5.486;2023-07-13T08:39:21;23.10;1.00
53880;DHT22;39791;53.184;5.486;2023-07-13T08:41:52;23.30;6.00
53880;DHT22;39791;53.184;5.486;2023-07-13T08:44:30;23.50;5.50
53880;DHT22;39791;53.184;5.486;2023-07-13T08:47:03;23.10;1.00
53880;DHT22;39791;53.184;5.486;2023-07-13T08:49:29;22.90;1.00
53880;DHT22;39791;53.184;5.486;2023-07-13T08:52:02;22.70;1.00
53880;DHT22;39791;53.184;5.486;2023-07-13T08:54:36;22.40;1.00
53880;DHT22;39791;53.184;5.486;2023-07-13T08:57:19;22.50;1.00
53880;DHT22;39791;53.184;5.486;2023-07-13T08:59:45;22.60;1.00
53880;DHT22;39791;53.184;5.486;2023-07-13T09:04:54;22.40;1.00
53880;DHT22;39791;53.184;5.486;2023-07-13T09:10:16;23.10;1.00
53880;DHT22;39791;53.184;5.486;2023-07-13T09:15:35;23.10;1.00
53880;DHT22;39791;53.184;5.486;2023-07-13T09:18:10;23.30;1.00
53880;DHT22;39791;53.184;5.486;2023-07-13T09:20:53;23.40;1.00
53880;DHT22;39791;53.184;5.486;2023-07-13T09:23:23;23.70;1.00
53880;DHT22;39791;53.184;5.486;2023-07-13T09:25:53;23.80;1.00
53880;DHT22;39791;53.184;5.486;2023-07-13T09:28:27;23.50;1.00
53880;DHT22;39791;53.184;5.486;2023-07-13T09:33:31;23.00;1.00
53880;DHT22;39791;53.184;5.486;2023-07-13T09:35:59;23.30;1.00
53880;DHT22;39791;53.184;5.486;2023-07-13T09:38:27;23.40;1.00
53880;DHT22;39791;53.184;5.486;2023-07-13T09:41:20;23.40;1.00
53880;DHT22;39791;53.184;5.486;2023-07-13T09:44:09;24.00;1.00
53880;DHT22;39791;53.184;5.486;2023-07-13T09:46:35;23.90;1.00
53880;DHT22;39791;53.184;5.486;2023-07-13T09:49:01;23.50;1.00
53880;DHT22;39791;53.184;5.486;2023-07-13T09:51:26;22.90;1.00
53880;DHT22;39791;53.184;5.486;2023-07-13T09:53:53;22.50;1.00
53880;DHT22;39791;53.184;5.486;2023-07-13T09:56:29;22.60;1.00
53880;DHT22;39791;53.184;5.486;2023-07-13T09:58:56;23.20;1.00
53880;DHT22;39791;53.184;5.486;2023-07-13T10:01:37;23.70;1.00
53880;DHT22;39791;53.184;5.486;2023-07-13T10:04:11;24.00;1.00
53880;DHT22;39791;53.184;5.486;2023-07-13T10:06:38;24.30;1.00
53880;DHT22;39791;53.184;5.486;2023-07-13T10:09:07;24.30;1.00
53880;DHT22;39791;53.184;5.486;2023-07-13T10:11:35;24.60;1.00
53880;DHT22;39791;53.184;5.486;2023-07-13T10:14:18;24.90;1.00
53880;DHT22;39791;53.184;5.486;2023-07-13T10:16:46;24.90;1.00
53880;DHT22;39791;53.184;5.486;2023-07-13T10:21:57;24.90;1.00
53880;DHT22;39791;53.184;5.486;2023-07-13T10:24:27;24.80;1.00
53880;DHT22;39791;53.184;5.486;2023-07-13T10:29:38;24.80;1.00
53880;DHT22;39791;53.184;5.486;2023-07-13T10:32:15;24.90;1.00
53880;DHT22;39791;53.184;5.486;2023-07-13T10:34:43;25.00;1.00
53880;DHT22;39791;53.184;5.486;2023-07-13T10:37:21;25.20;1.00
53880;DHT22;39791;53.184;5.486;2023-07-13T10:39:50;25.30;1.00
53880;DHT22;39791;53.184;5.486;2023-07-13T10:42:32;25.30;1.00
53880;DHT22;39791;53.184;5.486;2023-07-13T10:44:59;25.20;1.00
53880;DHT22;39791;53.184;5.486;2023-07-13T10:47:26;25.10;1.00
53880;DHT22;39791;53.184;5.486;2023-07-13T10:49:54;24.80;1.00
53880;DHT22;39791;53.184;5.486;2023-07-13T10:55:10;24.50;1.00
53880;DHT22;39791;53.184;5.486;2023-07-13T10:57:51;24.40;1.00
53880;DHT22;39791;53.184;5.486;2023-07-13T11:00:18;24.20;1.00
53880;DHT22;39791;53.184;5.486;2023-07-13T11:02:56;24.20;1.00
53880;DHT22;39791;53.184;5.486;2023-07-13T11:05:32;24.40;1.00
53880;DHT22;39791;53.184;5.486;2023-07-13T11:08:31;24.40;1.00
53880;DHT22;39791;53.184;5.486;2023-07-13T11:10:57;24.40;1.00
53880;DHT22;39791;53.184;5.486;2023-07-13T11:13:38;24.40;1.00
53880;DHT22;39791;53.184;5.486;2023-07-13T11:18:49;23.90;1.00
53880;DHT22;39791;53.184;5.486;2023-07-13T11:21:20;23.70;1.00
53880;DHT22;39791;53.184;5.486;2023-07-13T11:23:54;23.40;1.00
53880;DHT22;39791;53.184;5.486;2023-07-13T11:29:33;23.50;1.00
53880;DHT22;39791;53.184;5.486;2023-07-13T11:32:25;23.50;1.00
53880;DHT22;39791;53.184;5.486;2023-07-13T11:34:55;23.50;1.00
53880;DHT22;39791;53.184;5.486;2023-07-13T11:37:21;23.50;1.00
53880;DHT22;39791;53.184;5.486;2023-07-13T11:39:50;23.50;1.00
53880;DHT22;39791;53.184;5.486;2023-07-13T11:42:18;23.50;1.00
53880;DHT22;39791;53.184;5.486;2023-07-13T11:44:48;23.40;1.00
53880;DHT22;39791;53.184;5.486;2023-07-13T11:47:20;23.50;1.00
53880;DHT22;39791;53.184;5.486;2023-07-13T11:49:55;23.50;1.00
53880;DHT22;39791;53.184;5.486;2023-07-13T11:52:36;23.60;1.00
53880;DHT22;39791;53.184;5.486;2023-07-13T11:55:14;23.50;1.00
53880;DHT22;39791;53.184;5.486;2023-07-13T11:58:00;23.50;1.00
53880;DHT22;39791;53.184;5.486;2023-07-13T12:00:29;23.60;1.00
53880;DHT22;39791;53.184;5.486;2023-07-13T12:02:58;23.50;1.00
53880;DHT22;39791;53.184;5.486;2023-07-13T12:05:25;23.60;1.00
53880;DHT22;39791;53.184;5.486;2023-07-13T12:07:51;23.60;1.00
53880;DHT22;39791;53.184;5.486;2023-07-13T12:10:28;23.60;1.00
53880;DHT22;39791;53.184;5.486;2023-07-13T12:15:26;23.60;1.00
53880;DHT22;39791;53.184;5.486;2023-07-13T12:17:53;23.50;1.00
53880;DHT22;39791;53.184;5.486;2023-07-13T12:20:25;23.70;1.00
53880;DHT22;39791;53.184;5.486;2023-07-13T12:22:52;23.50;1.00
53880;DHT22;39791;53.184;5.486;2023-07-13T12:25:19;23.60;1.00
53880;DHT22;39791;53.184;5.486;2023-07-13T12:27:50;23.50;1.00
53880;DHT22;39791;53.184;5.486;2023-07-13T12:33:00;23.50;1.00
53880;DHT22;39791;53.184;5.486;2023-07-13T12:35:29;23.30;1.00
53880;DHT22;39791;53.184;5.486;2023-07-13T12:37:57;23.40;1.00
53880;DHT22;39791;53.184;5.486;2023-07-13T12:40:32;23.40;1.00
53880;DHT22;39791;53.184;5.486;2023-07-13T12:42:58;23.40;1.00
53880;DHT22;39791;53.184;5.486;2023-07-13T12:45:26;23.00;1.00
53880;DHT22;39791;53.184;5.486;2023-07-13T12:48:14;22.60;1.00
53880;DHT22;39791;53.184;5.486;2023-07-13T12:50:42;22.40;1.00
53880;DHT22;39791;53.184;5.486;2023-07-13T12:53:19;22.20;1.00
53880;DHT22;39791;53.184;5.486;2023-07-13T12:55:53;22.40;1.00
53880;DHT22;39791;53.184;5.486;2023-07-13T12:58:39;22.60;1.00
53880;DHT22;39791;53.184;5.486;2023-07-13T13:01:10;22.70;1.00
53880;DHT22;39791;53.184;5.486;2023-07-13T13:03:46;22.60;1.00
53880;DHT22;39791;53.184;5.486;2023-07-13T13:08:56;22.30;1.00
53880;DHT22;39791;53.184;5.486;2023-07-13T13:11:24;22.30;1.00
53880;DHT22;39791;53.184;5.486;2023-07-13T13:13:51;22.20;1.00
53880;DHT22;39791;53.184;5.486;2023-07-13T13:18:54;21.80;1.00
53880;DHT22;39791;53.184;5.486;2023-07-13T13:21:23;21.50;1.00
53880;DHT22;39791;53.184;5.486;2023-07-13T13:23:49;21.10;1.00
53880;DHT22;39791;53.184;5.486;2023-07-13T13:26:16;21.10;12.10
53880;DHT22;39791;53.184;5.486;2023-07-13T13:28:43;21.00;20.90
53880;DHT22;39791;53.184;5.486;2023-07-13T13:31:10;20.90;25.50
53880;DHT22;39791;53.184;5.486;2023-07-13T13:33:41;20.80;51.60
53880;DHT22;39791;53.184;5.486;2023-07-13T13:36:20;20.70;52.20
53880;DHT22;39791;53.184;5.486;2023-07-13T13:38:48;20.60;65.50
53880;DHT22;39791;53.184;5.486;2023-07-13T13:41:14;20.50;66.80
53880;DHT22;39791;53.184;5.486;2023-07-13T13:43:43;20.60;96.70
53880;DHT22;39791;53.184;5.486;2023-07-13T13:46:17;20.80;99.90
53880;DHT22;39791;53.184;5.486;2023-07-13T13:48:43;21.00;99.90
53880;DHT22;39791;53.184;5.486;2023-07-13T13:51:18;21.30;99.90
53880;DHT22;39791;53.184;5.486;2023-07-13T13:53:45;21.60;99.90
53880;DHT22;39791;53.184;5.486;2023-07-13T13:56:13;21.70;92.00
53880;DHT22;39791;53.184;5.486;2023-07-13T13:58:39;21.70;85.90
53880;DHT22;39791;53.184;5.486;2023-07-13T14:01:04;21.50;70.80
53880;DHT22;39791;53.184;5.486;2023-07-13T14:03:34;21.50;69.30
53880;DHT22;39791;53.184;5.486;2023-07-13T14:05:59;21.40;51.50
53880;DHT22;39791;53.184;5.486;2023-07-13T14:08:26;21.40;60.60
53880;DHT22;39791;53.184;5.486;2023-07-13T14:10:53;21.40;84.50
53880;DHT22;39791;53.184;5.486;2023-07-13T14:13:25;21.50;97.20
53880;DHT22;39791;53.184;5.486;2023-07-13T14:15:53;21.60;98.00
53880;DHT22;39791;53.184;5.486;2023-07-13T14:18:18;21.60;85.60
53880;DHT22;39791;53.184;5.486;2023-07-13T14:20:44;21.70;89.60
53880;DHT22;39791;53.184;5.486;2023-07-13T14:23:13;22.00;89.60
53880;DHT22;39791;53.184;5.486;2023-07-13T14:25:39;21.80;88.50
53880;DHT22;39791;53.184;5.486;2023-07-13T14:28:22;21.60;74.30
53880;DHT22;39791;53.184;5.486;2023-07-13T14:30:49;21.70;92.30
53880;DHT22;39791;53.184;5.486;2023-07-13T14:33:15;21.70;92.70
53880;DHT22;39791;53.184;5.486;2023-07-13T14:35:41;21.90;99.90
53880;DHT22;39791;53.184;5.486;2023-07-13T14:38:18;21.60;83.60
53880;DHT22;39791;53.184;5.486;2023-07-13T14:40:45;21.40;87.90
53880;DHT22;39791;53.184;5.486;2023-07-13T14:43:15;21.20;95.50
53880;DHT22;39791;53.184;5.486;2023-07-13T14:45:43;21.30;99.90
53880;DHT22;39791;53.184;5.486;2023-07-13T14:48:24;21.40;99.90
53880;DHT22;39791;53.184;5.486;2023-07-13T14:50:54;21.40;99.90
53880;DHT22;39791;53.184;5.486;2023-07-13T14:53:20;21.40;99.90
53880;DHT22;39791;53.184;5.486;2023-07-13T14:55:45;21.50;99.90
53880;DHT22;39791;53.184;5.486;2023-07-13T14:58:11;21.40;99.90
53880;DHT22;39791;53.184;5.486;2023-07-13T15:00:36;21.50;99.90
53880;DHT22;39791;53.184;5.486;2023-07-13T15:03:04;21.70;99.90
53880;DHT22;39791;53.184;5.486;2023-07-13T15:05:31;21.60;99.90
53880;DHT22;39791;53.184;5.486;2023-07-13T15:07:59;21.60;99.90
53880;DHT22;39791;53.184;5.486;2023-07-13T15:10:31;21.50;98.40
53880;DHT22;39791;53.184;5.486;2023-07-13T15:13:12;21.40;99.50
53880;DHT22;39791;53.184;5.486;2023-07-13T15:15:39;21.40;99.90
53880;DHT22;39791;53.184;5.486;2023-07-13T15:18:07;21.30;98.30
53880;DHT22;39791;53.184;5.486;2023-07-13T15:20:34;21.20;99.90
53880;DHT22;39791;53.184;5.486;2023-07-13T15:23:03;21.20;99.90
53880;DHT22;39791;53.184;5.486;2023-07-13T15:25:30;21.20;99.90
53880;DHT22;39791;53.184;5.486;2023-07-13T15:27:57;21.20;99.90
53880;DHT22;39791;53.184;5.486;2023-07-13T15:30:29;21.20;99.90
53880;DHT22;39791;53.184;5.486;2023-07-13T15:32:57;21.10;99.90
53880;DHT22;39791;53.184;5.486;2023-07-13T15:35:26;21.10;99.90
53880;DHT22;39791;53.184;5.486;2023-07-13T15:37:52;21.20;99.90
53880;DHT22;39791;53.184;5.486;2023-07-13T15:40:18;21.20;99.90
53880;DHT22;39791;53.184;5.486;2023-07-13T15:42:47;21.00;99.90
53880;DHT22;39791;53.184;5.486;2023-07-13T15:45:18;20.90;99.90
53880;DHT22;39791;53.184;5.486;2023-07-13T15:47:45;21.00;99.90
53880;DHT22;39791;53.184;5.486;2023-07-13T15:50:39;21.00;99.90
53880;DHT22;39791;53.184;5.486;2023-07-13T15:53:09;21.00;99.90
53880;DHT22;39791;53.184;5.486;2023-07-13T15:55:38;21.00;99.90
53880;DHT22;39791;53.184;5.486;2023-07-13T15:58:05;21.10;99.90
53880;DHT22;39791;53.184;5.486;2023-07-13T16:00:34;21.10;99.90
53880;DHT22;39791;53.184;5.486;2023-07-13T16:03:00;21.10;99.90
53880;DHT22;39791;53.184;5.486;2023-07-13T16:05:26;20.90;99.90
53880;DHT22;39791;53.184;5.486;2023-07-13T16:07:52;20.90;99.90
53880;DHT22;39791;53.184;5.486;2023-07-13T16:10:27;21.00;99.90
53880;DHT22;39791;53.184;5.486;2023-07-13T16:12:55;21.00;99.90
53880;DHT22;39791;53.184;5.486;2023-07-13T16:15:22;21.20;99.90
53880;DHT22;39791;53.184;5.486;2023-07-13T16:17:48;21.20;99.90
53880;DHT22;39791;53.184;5.486;2023-07-13T16:20:15;21.20;99.90
53880;DHT22;39791;53.184;5.486;2023-07-13T16:22:45;21.10;99.90